Lake Geneva, WI

11:48 PM CDT on July 03, 2015 (GMT -0500)
Vista Del Lago | | Change Station
CLOSE
Current Station
Personal Weather Station
Location: Lake Geneva, WI
Elevation: 978 ft
Nearby Weather Stations

Elev 978 ft 42.58 °N, 88.43 °W | Updated 13 seconds ago

Clear
Clear
64.1 °F
Feels Like 64.1 °F
N
0.0
Wind Variable Wind from ENE
Gusts 2.0 mph

Today
High -- | Low -- °F
--% Chance of Precip.
Yesterday
High -- | Low -- °F
Precip. -- in
5:20 AM 8:34 PM
Waning Gibbous, 94% visible
Pressure 29.96 in
Visibility 10.0 miles
Clouds Clear
Dew Point 58 °F
Humidity 81%
Rainfall 0.00 in
Snow Depth Not available.
UV 0.0 out of 12
Pollen 3.10 out of 12
Air Quality Not available.
Flu Activity Not available.
METAR KBUU 040435Z AUTO 00000KT 10SM CLR 13/12 A2996 RMK AO2 T01250119

More Conditions Fewer Conditions

Pressure 29.96 in
Visibility 10.0 miles
Clouds Clear
Dew Point 58 °F
Humidity 81%
Rainfall 0.00 in
Snow Depth Not available.
UV 0.0 out of 12
Pollen 3.10 out of 12
Air Quality Not available.
Flu Activity Not available.
METAR KBUU 040435Z AUTO 00000KT 10SM CLR 13/12 A2996 RMK AO2 T01250119

More Conditions Fewer Conditions

10-Day Weather Forecast

×

Almanac

Astronomy

Jul. 03, 2015 Rise Set
Actual Time
Civil Twilight
Nautical Twilight
Astronomical Twilight
Moon
Length of Visible Light
Length of Day
Tomorrow will be .
, % of the Moon is Illuminated

Today's Extremes

State Highs State Lows

Community

WunderPhotos

Upload Photos

1,834,931 photos uploaded!

WunderBlogs® & News

Nearby

Air Quality

  Air Quality AQ Index Pollutant
Not available.

Snow Depth

Station Depth Elevation

Earthquake Activity

City Distance Mag. Time & Date
Minimum magnitude displayed is 2.5.

Coastal Water Temperatures

Place Temperature

Stations

Nearby Weather Stations

Station Location Temp. Windchill Dew Point Humidity Wind Precip. Elev Updated Type